Map

Track Data

SID SEASON NUMBER BASIN SUBBASIN NAME ISO_TIME NATURE LAT LON WMO_WIND WMO_PRES WMO_AGENCY TRACK_TYPE DIST2LAND LANDFALL IFLAG USA_AGENCY USA_ATCF_ID USA_LAT USA_LON USA_RECORD USA_STATUS USA_WIND USA_PRES USA_SSHS USA_R34_NE USA_R34_SE USA_R34_SW USA_R34_NW USA_R50_NE USA_R50_SE USA_R50_SW USA_R50_NW USA_R64_NE USA_R64_SE USA_R64_SW USA_R64_NW USA_POCI USA_ROCI USA_RMW USA_EYE TOKYO_LAT TOKYO_LON TOKYO_GRADE TOKYO_WIND TOKYO_PRES TOKYO_R50_DIR TOKYO_R50_LONG TOKYO_R50_SHORT TOKYO_R30_DIR TOKYO_R30_LONG TOKYO_R30_SHORT TOKYO_LAND CMA_LAT CMA_LON CMA_CAT CMA_WIND CMA_PRES HKO_LAT HKO_LON HKO_CAT HKO_WIND HKO_PRES NEWDELHI_LAT NEWDELHI_LON NEWDELHI_GRADE NEWDELHI_WIND NEWDELHI_PRES NEWDELHI_CI NEWDELHI_DP NEWDELHI_POCI REUNION_LAT REUNION_LON REUNION_TYPE REUNION_WIND REUNION_PRES REUNION_TNUM REUNION_CI REUNION_RMW REUNION_R34_NE REUNION_R34_SE REUNION_R34_SW REUNION_R34_NW REUNION_R50_NE REUNION_R50_SE REUNION_R50_SW REUNION_R50_NW REUNION_R64_NE REUNION_R64_SE REUNION_R64_SW REUNION_R64_NW BOM_LAT BOM_LON BOM_TYPE BOM_WIND BOM_PRES BOM_TNUM BOM_CI BOM_RMW BOM_R34_NE BOM_R34_SE BOM_R34_SW BOM_R34_NW BOM_R50_NE BOM_R50_SE BOM_R50_SW BOM_R50_NW BOM_R64_NE BOM_R64_SE BOM_R64_SW BOM_R64_NW BOM_ROCI BOM_POCI BOM_EYE BOM_POS_METHOD BOM_PRES_METHOD NADI_LAT NADI_LON NADI_CAT NADI_WIND NADI_PRES WELLINGTON_LAT WELLINGTON_LON WELLINGTON_WIND WELLINGTON_PRES DS824_LAT DS824_LON DS824_STAGE DS824_WIND DS824_PRES TD9636_LAT TD9636_LON TD9636_STAGE TD9636_WIND TD9636_PRES TD9635_LAT TD9635_LON TD9635_WIND TD9635_PRES TD9635_ROCI NEUMANN_LAT NEUMANN_LON NEUMANN_CLASS NEUMANN_WIND NEUMANN_PRES MLC_LAT MLC_LON MLC_CLASS MLC_WIND MLC_PRES USA_GUST BOM_GUST BOM_GUST_PER REUNION_GUST REUNION_GUST_PER USA_SEAHGT USA_SEARAD_NE USA_SEARAD_SE USA_SEARAD_SW USA_SEARAD_NW STORM_SPEED STORM_DIR
1920100S13059 1920 13 SI MM NOT_NAMED 1920-04-09 00:00:00 TS -13.0000 59.2000 main 810 771 _________O____ -1 -13.0000 59.2000 TC 25 8 224
1920100S13059 1920 13 SI MM NOT_NAMED 1920-04-09 03:00:00 TS -13.2975 58.9051 main 771 733 _________P____ -1 -13.2975 58.9051 TC 25 8 224
1920100S13059 1920 13 SI MM NOT_NAMED 1920-04-09 06:00:00 TS -13.6000 58.6000 main 733 696 _________O____ -1 -13.6000 58.6000 TC 25 9 225
1920100S13059 1920 13 SI MM NOT_NAMED 1920-04-09 09:00:00 TS -13.9075 58.2850 main 696 660 _________P____ -1 -13.9075 58.2850 TC 25 8 224
1920100S13059 1920 13 SI MM NOT_NAMED 1920-04-09 12:00:00 TS -14.2000 58.0000 main 660 637 _________O____ -1 -14.2000 58.0000 TC 25 7 222
1920100S13059 1920 13 SI MM NOT_NAMED 1920-04-09 15:00:00 TS -14.4575 57.7774 main 626 604 _________P____ -1 -14.4575 57.7774 TC 25 6 218
1920100S13059 1920 13 SI MM NOT_NAMED 1920-04-09 18:00:00 TS -14.7000 57.6000 main 604 581 _________O____ -1 -14.7000 57.6000 TC 25 6 219
1920100S13059 1920 13 SI MM NOT_NAMED 1920-04-09 21:00:00 TS -14.9125 57.3902 main 581 548 _________P____ -1 -14.9125 57.3902 TC 25 6 210
1920100S13059 1920 13 SI MM NOT_NAMED 1920-04-10 00:00:00 TS -15.2000 57.3000 main 548 503 _________O____ -1 -15.2000 57.3000 TC 25 8 179
1920100S13059 1920 13 SI MM NOT_NAMED 1920-04-10 03:00:00 TS -15.6774 57.4100 main 492 436 _________P____ -1 -15.6774 57.4100 TC 25 11 159
1920100S13059 1920 13 SI MM NOT_NAMED 1920-04-10 06:00:00 TS -16.2000 57.7000 main 436 393 _________O____ -1 -16.2000 57.7000 TC 25 12 144
1920100S13059 1920 13 SI MM NOT_NAMED 1920-04-10 09:00:00 TS -16.6377 58.1347 main 393 359 _________P____ -1 -16.6377 58.1347 TC 25 12 133
1920100S13059 1920 13 SI MM NOT_NAMED 1920-04-10 12:00:00 TS -17.0000 58.6000 main 359 337 _________O____ -1 -17.0000 58.6000 TC 25 10 130
1920100S13059 1920 13 SI MM NOT_NAMED 1920-04-10 15:00:00 TS -17.2798 58.9228 main 337 326 _________P____ -1 -17.2798 58.9228 TC 25 8 131
1920100S13059 1920 13 SI MM NOT_NAMED 1920-04-10 18:00:00 TS -17.5000 59.2000 main 330 322 _________O____ -1 -17.5000 59.2000 TC 25 7 128
1920100S13059 1920 13 SI MM NOT_NAMED 1920-04-10 21:00:00 TS -17.7150 59.5150 main 328 323 _________P____ -1 -17.7150 59.5150 TC 25 7 125
1920100S13059 1920 13 SI MM NOT_NAMED 1920-04-11 00:00:00 TS -17.9000 59.8000 main 330 329 _________O____ -1 -17.9000 59.8000 TC 25 6 126
1920100S13059 1920 13 SI MM NOT_NAMED 1920-04-11 03:00:00 TS -18.0574 60.0076 main 329 329 _________P____ -1 -18.0574 60.0076 TC 25 5 128
1920100S13059 1920 13 SI MM NOT_NAMED 1920-04-11 06:00:00 TS -18.2000 60.2000 main 337 337 _________O____ -1 -18.2000 60.2000 TC 25 5 125
1920100S13059 1920 13 SI MM NOT_NAMED 1920-04-11 09:00:00 TS -18.3500 60.4425 main 347 347 _________P____ -1 -18.3500 60.4425 TC 25 6 122
1920100S13059 1920 13 SI MM NOT_NAMED 1920-04-11 12:00:00 TS -18.5000 60.7000 main 362 362 _________O____ -1 -18.5000 60.7000 TC 25 6 123
1920100S13059 1920 13 SI MM NOT_NAMED 1920-04-11 15:00:00 TS -18.6575 60.9500 main 379 379 _________P____ -1 -18.6575 60.9500 TC 25 6 122
1920100S13059 1920 13 SI MM NOT_NAMED 1920-04-11 18:00:00 TS -18.8000 61.2000 main 393 393 _________O____ -1 -18.8000 61.2000 TC 25 5 118
1920100S13059 1920 13 SI MM NOT_NAMED 1920-04-11 21:00:00 TS -18.8999 61.4277 main 408 408 _________P____ -1 -18.8999 61.4277 TC 25 5 113
1920100S13059 1920 13 SI MM NOT_NAMED 1920-04-12 00:00:00 TS -19.0000 61.7000 main 433 433 _________O____ -1 -19.0000 61.7000 TC 25 7 111
1920100S13059 1920 13 SI MM NOT_NAMED 1920-04-12 03:00:00 TS -19.1426 62.0850 main 469 466 _________P____ -1 -19.1426 62.0850 TC 25 8 112
1920100S13059 1920 13 SI MM NOT_NAMED 1920-04-12 06:00:00 TS -19.3000 62.5000 main 504 504 _________O____ -1 -19.3000 62.5000 TC 25 8 113
1920100S13059 1920 13 SI MM NOT_NAMED 1920-04-12 09:00:00 TS -19.4499 62.8576 main 542 540 _________P____ -1 -19.4499 62.8576 TC 25 7 114
1920100S13059 1920 13 SI MM NOT_NAMED 1920-04-12 12:00:00 TS -19.6000 63.2000 main 569 569 _________O____ -1 -19.6000 63.2000 TC 25 7 114
1920100S13059 1920 13 SI MM NOT_NAMED 1920-04-12 15:00:00 TS -19.7424 63.5501 main 609 608 _________P____ -1 -19.7424 63.5501 TC 25 7 115
1920100S13059 1920 13 SI MM NOT_NAMED 1920-04-12 18:00:00 TS -19.9000 63.9000 main 638 638 _________O____ -1 -19.9000 63.9000 TC 25 7 118
1920100S13059 1920 13 SI MM NOT_NAMED 1920-04-12 21:00:00 TS -20.0847 64.2202 main 668 668 _________P____ -1 -20.0847 64.2202 TC 25 8 121
1920100S13059 1920 13 SI MM NOT_NAMED 1920-04-13 00:00:00 TS -20.3000 64.6000 main 709 709 _________O____ -1 -20.3000 64.6000 TC 25 10 118
1920100S13059 1920 13 SI MM NOT_NAMED 1920-04-13 03:00:00 TS -20.5426 65.1200 main 760 760 _________P____ -1 -20.5426 65.1200 TC 25 11 116
1920100S13059 1920 13 SI MM NOT_NAMED 1920-04-13 06:00:00 TS -20.8000 65.7000 main 824 824 _________O____ -1 -20.8000 65.7000 TC 25 12 116
1920100S13059 1920 13 SI MM NOT_NAMED 1920-04-13 09:00:00 TS -21.0499 66.2576 main 887 887 _________P____ -1 -21.0499 66.2576 TC 25 11 116
1920100S13059 1920 13 SI MM NOT_NAMED 1920-04-13 12:00:00 TS -21.3000 66.8000 main 941 941 _________O____ -1 -21.3000 66.8000 TC 25 11 118
1920100S13059 1920 13 SI MM NOT_NAMED 1920-04-13 15:00:00 TS -21.5572 67.3002 main 996 996 _________P____ -1 -21.5572 67.3002 TC 25 11 118
1920100S13059 1920 13 SI MM NOT_NAMED 1920-04-13 18:00:00 TS -21.8000 67.8000 main 1050 1050 _________O____ -1 -21.8000 67.8000 TC 25 11 115
1920100S13059 1920 13 SI MM NOT_NAMED 1920-04-13 21:00:00 TS -22.0150 68.3501 main 1115 1115 _________P____ -1 -22.0150 68.3501 TC 25 11 111
1920100S13059 1920 13 SI MM NOT_NAMED 1920-04-14 00:00:00 TS -22.2000 68.9000 main 1169 1169 _________O____ -1 -22.2000 68.9000 TC 25 10 109
1920100S13059 1920 13 SI MM NOT_NAMED 1920-04-14 03:00:00 TS -22.3498 69.4153 main 1221 1221 _________P____ -1 -22.3498 69.4153 TC 25 10 108
1920100S13059 1920 13 SI MM NOT_NAMED 1920-04-14 06:00:00 TS -22.5000 69.9000 main 1275 1275 _________O____ -1 -22.5000 69.9000 TC 25 9 112
1920100S13059 1920 13 SI MM NOT_NAMED 1920-04-14 09:00:00 TS -22.6999 70.3650 main 1330 1330 _________P____ -1 -22.6999 70.3650 TC 25 9 116
1920100S13059 1920 13 SI MM NOT_NAMED 1920-04-14 12:00:00 TS -22.9000 70.8000 main 1374 1374 _________O____ -1 -22.9000 70.8000 TC 25 9 115
1920100S13059 1920 13 SI MM NOT_NAMED 1920-04-14 15:00:00 TS -23.0574 71.2152 main 1418 1418 _________P____ -1 -23.0574 71.2152 TC 25 8 112
1920100S13059 1920 13 SI MM NOT_NAMED 1920-04-14 18:00:00 TS -23.2000 71.6000 main 1460 1460 _________O____ -1 -23.2000 71.6000 TC 25 7 113
1920100S13059 1920 13 SI MM NOT_NAMED 1920-04-14 21:00:00 TS -23.3422 71.9353 main 1492 1492 _________P____ -1 -23.3422 71.9353 TC 25 7 115
1920100S13059 1920 13 SI MM NOT_NAMED 1920-04-15 00:00:00 TS -23.5000 72.3000 main 1536 1536 _________O____ -1 -23.5000 72.3000 TC 25 8 114
1920100S13059 1920 13 SI MM NOT_NAMED 1920-04-15 03:00:00 TS -23.6925 72.7775 main 1591 1591 _________P____ -1 -23.6925 72.7775 TC 25 10 114
1920100S13059 1920 13 SI MM NOT_NAMED 1920-04-15 06:00:00 TS -23.9000 73.3000 main 1645 1645 _________O____ -1 -23.9000 73.3000 TC 25 10 114
1920100S13059 1920 13 SI MM NOT_NAMED 1920-04-15 09:00:00 TS -24.1075 73.8150 main 1699 1699 _________P____ -1 -24.1075 73.8150 TC 25 10 114
1920100S13059 1920 13 SI MM NOT_NAMED 1920-04-15 12:00:00 TS -24.3000 74.3000 main 1753 1753 _________O____ -1 -24.3000 74.3000 TC 25 9 113
1920100S13059 1920 13 SI MM NOT_NAMED 1920-04-15 15:00:00 TS -24.4573 74.7152 main 1797 1797 _________P____ -1 -24.4573 74.7152 TC 25 8 112
1920100S13059 1920 13 SI MM NOT_NAMED 1920-04-15 18:00:00 TS -24.6000 75.1000 main 1839 1839 _________O____ -1 -24.6000 75.1000 TC 25 8 112
1920100S13059 1920 13 SI MM NOT_NAMED 1920-04-15 21:00:00 TS -24.7478 75.4947 main 1881 1881 _________P____ -1 -24.7478 75.4947 TC 25 8 112
1920100S13059 1920 13 SI MM NOT_NAMED 1920-04-16 00:00:00 TS -24.9000 75.9000 main 1925 _________O____ -1 -24.9000 75.9000 TC 25 8 113

About IBTrACS Database

This database is a web-friendly format of International Best Track Archive for Climate Stewardship (IBTrACS), a global best track data archive curated by NOAA dating back to 1842.

Updated: 2021-10-21